Time;durP1;ratioP1;P1;durP2;ratioP2;P2;SDS_P1;SDS_P2;PMS_P1;PMS_P2;Temp;Humidity;BMP_temperature;BMP_pressure;BME280_temperature;BME280_humidity;BME280_pressure;Samples;Min_cycle;Max_cycle;Signal;HPM_P1;HPM_P2
2024/01/09 00:02:21;;;;;;;17.88;11.20;;;-1.40;69.50;;;;;;5035336;28;20694;-84
2024/01/09 00:04:48;;;;;;;21.52;11.40;;;-1.40;69.40;;;;;;5035919;28;20195;-84
2024/01/09 00:07:16;;;;;;;16.38;10.38;;;-1.40;69.30;;;;;;5035390;28;20216;-85
2024/01/09 00:09:43;;;;;;;20.40;11.75;;;-1.40;69.30;;;;;;5034419;28;20216;-85
2024/01/09 00:12:10;;;;;;;17.08;11.02;;;-1.40;69.00;;;;;;5034880;28;20267;-84
2024/01/09 00:14:37;;;;;;;16.30;10.80;;;-1.30;68.70;;;;;;5035552;28;20286;-84
2024/01/09 00:17:06;;;;;;;19.38;10.85;;;-1.40;68.80;;;;;;5035115;28;20283;-84
2024/01/09 00:19:33;;;;;;;17.02;10.63;;;-1.40;69.00;;;;;;5035527;28;20607;-84
2024/01/09 00:22:02;;;;;;;19.70;11.45;;;-1.50;70.10;;;;;;5035271;28;20198;-84
2024/01/09 00:24:33;;;;;;;22.40;10.30;;;-1.50;69.40;;;;;;5034918;28;20606;-84
2024/01/09 00:27:00;;;;;;;20.55;11.93;;;-1.50;69.20;;;;;;5034911;28;20271;-85
2024/01/09 00:29:27;;;;;;;16.15;10.45;;;-1.50;69.20;;;;;;5035076;28;20234;-85
2024/01/09 00:31:54;;;;;;;16.90;10.35;;;-1.50;69.00;;;;;;5035106;28;20253;-85
2024/01/09 00:34:23;;;;;;;16.95;9.80;;;-1.50;68.90;;;;;;5034799;28;20645;-85
2024/01/09 00:36:50;;;;;;;21.08;11.10;;;-1.60;69.20;;;;;;5035087;28;20282;-84
2024/01/09 00:39:17;;;;;;;19.60;11.45;;;-1.60;69.30;;;;;;5034550;28;20199;-84
2024/01/09 00:41:45;;;;;;;17.75;11.35;;;-1.70;69.80;;;;;;5034849;28;20616;-85
2024/01/09 00:44:13;;;;;;;18.58;11.13;;;-1.70;69.70;;;;;;5034832;28;20286;-85
2024/01/09 00:46:40;;;;;;;23.15;12.88;;;-1.70;69.80;;;;;;5034869;28;20279;-84
2024/01/09 00:49:07;;;;;;;21.30;11.35;;;-1.70;70.20;;;;;;5034516;28;20218;-84
2024/01/09 00:51:34;;;;;;;19.38;12.27;;;-1.80;70.70;;;;;;5034290;28;20286;-85
2024/01/09 00:54:01;;;;;;;22.02;13.27;;;-1.80;70.90;;;;;;5021522;28;20275;-84
2024/01/09 00:56:28;;;;;;;25.50;12.90;;;-1.70;70.20;;;;;;5014690;28;20283;-84
2024/01/09 00:58:56;;;;;;;24.92;13.20;;;-1.80;70.30;;;;;;5014668;28;20193;-84
2024/01/09 01:01:23;;;;;;;22.55;12.00;;;-1.70;69.90;;;;;;5006742;28;20205;-84
2024/01/09 01:03:50;;;;;;;19.05;11.30;;;-1.70;69.70;;;;;;5014710;28;20283;-84
2024/01/09 01:06:17;;;;;;;20.65;12.40;;;-1.80;69.60;;;;;;5014526;28;20613;-84
2024/01/09 01:08:44;;;;;;;25.70;12.52;;;-1.90;70.10;;;;;;5014572;28;20300;-84
2024/01/09 01:11:10;;;;;;;22.80;12.68;;;-2.00;70.30;;;;;;5000926;28;20324;-84
2024/01/09 01:13:37;;;;;;;23.77;12.85;;;-2.00;70.40;;;;;;4994820;28;20193;-84
2024/01/09 01:16:06;;;;;;;26.02;12.55;;;-1.90;70.00;;;;;;4994988;28;20517;-85
2024/01/09 01:18:33;;;;;;;19.05;11.52;;;-2.00;70.30;;;;;;4994773;28;20224;-84
2024/01/09 01:21:00;;;;;;;24.73;14.13;;;-2.00;70.40;;;;;;4994144;28;20236;-84
2024/01/09 01:23:26;;;;;;;26.98;12.57;;;-2.10;70.50;;;;;;4994380;28;20280;-84
2024/01/09 01:25:53;;;;;;;25.50;13.50;;;-2.10;70.60;;;;;;4994356;28;20280;-85
2024/01/09 01:28:20;;;;;;;21.52;12.60;;;-2.10;70.80;;;;;;4994266;28;20200;-85
2024/01/09 01:30:47;;;;;;;24.02;13.77;;;-2.10;70.70;;;;;;4994520;28;20600;-85
2024/01/09 01:33:15;;;;;;;17.33;10.88;;;-2.20;70.70;;;;;;4993301;28;20715;-86
2024/01/09 01:35:43;;;;;;;26.95;12.77;;;-2.10;71.10;;;;;;4993087;28;20232;-85
2024/01/09 01:38:09;;;;;;;26.38;12.70;;;-2.20;71.30;;;;;;4994272;28;20307;-84
2024/01/09 01:40:36;;;;;;;20.52;12.73;;;-2.20;71.30;;;;;;4997583;28;20276;-84
2024/01/09 01:43:05;;;;;;;20.40;13.27;;;-2.20;71.20;;;;;;5013956;28;20247;-84
2024/01/09 01:45:32;;;;;;;22.52;14.20;;;-2.20;70.70;;;;;;5013938;28;20279;-84
2024/01/09 01:47:59;;;;;;;21.20;12.50;;;-2.10;70.10;;;;;;5014060;28;20279;-84
2024/01/09 01:50:28;;;;;;;24.38;14.20;;;-2.20;69.90;;;;;;5013522;28;20244;-84
2024/01/09 01:52:55;;;;;;;21.85;11.57;;;-2.10;70.10;;;;;;5013463;28;20196;-85
2024/01/09 01:55:24;;;;;;;24.65;12.70;;;-2.20;70.00;;;;;;5013605;28;20223;-85
2024/01/09 01:57:53;;;;;;;23.10;12.90;;;-2.10;69.40;;;;;;5013510;28;20195;-83
2024/01/09 02:00:21;;;;;;;21.45;11.77;;;-2.20;69.50;;;;;;5013596;28;20741;-84
2024/01/09 02:02:48;;;;;;;27.30;14.38;;;-2.20;69.30;;;;;;5013938;28;20274;-84
2024/01/09 02:05:17;;;;;;;20.38;12.23;;;-2.20;69.20;;;;;;5013628;28;20192;-84
2024/01/09 02:07:47;;;;;;;25.52;12.75;;;-2.30;69.40;;;;;;5013707;28;20287;-83
2024/01/09 02:10:14;;;;;;;23.55;13.07;;;-2.30;69.90;;;;;;5019300;28;20227;-84
2024/01/09 02:12:41;;;;;;;23.98;13.00;;;-2.30;69.60;;;;;;5033271;28;20200;-84
2024/01/09 02:15:09;;;;;;;24.23;15.00;;;-2.30;69.60;;;;;;5033059;28;20223;-84
2024/01/09 02:17:38;;;;;;;21.13;12.63;;;-2.30;69.60;;;;;;5027320;28;20271;-84
2024/01/09 02:20:07;;;;;;;19.90;12.75;;;-2.30;69.80;;;;;;5013492;28;20250;-84
2024/01/09 02:22:34;;;;;;;24.05;13.48;;;-2.20;69.70;;;;;;5013308;28;20280;-85
2024/01/09 02:25:04;;;;;;;30.25;14.88;;;-2.30;69.10;;;;;;5013592;28;20251;-84
2024/01/09 02:27:41;;;;;;;21.75;12.25;;;-2.20;68.80;;;;;;5013482;28;20215;-84
2024/01/09 02:30:11;;;;;;;23.95;13.57;;;-2.30;68.90;;;;;;5013132;28;20770;-84
2024/01/09 02:32:38;;;;;;;21.50;12.10;;;-2.30;68.70;;;;;;5012875;28;20290;-84
2024/01/09 02:35:05;;;;;;;21.23;12.82;;;-2.30;69.00;;;;;;5017052;28;20283;-84
2024/01/09 02:37:32;;;;;;;19.92;11.65;;;-2.30;69.20;;;;;;5017313;28;20274;-84
2024/01/09 02:40:00;;;;;;;22.05;12.18;;;-2.40;69.10;;;;;;5017439;28;20279;-84
2024/01/09 02:42:27;;;;;;;22.17;13.18;;;-2.40;69.40;;;;;;5016899;28;20246;-84
2024/01/09 02:44:54;;;;;;;28.08;13.50;;;-2.40;68.90;;;;;;5016969;28;20216;-83
2024/01/09 02:47:23;;;;;;;23.50;11.73;;;-2.40;69.10;;;;;;5016981;28;20189;-83
2024/01/09 02:49:50;;;;;;;25.33;13.65;;;-2.40;69.60;;;;;;5016978;28;20214;-84
2024/01/09 02:52:17;;;;;;;24.27;13.20;;;-2.50;69.40;;;;;;5016725;28;20224;-85
2024/01/09 02:54:44;;;;;;;23.45;14.63;;;-2.50;69.60;;;;;;5016921;28;20283;-84
2024/01/09 02:57:12;;;;;;;28.40;13.35;;;-2.50;69.10;;;;;;5016733;28;20196;-84
2024/01/09 02:59:39;;;;;;;22.77;13.15;;;-2.50;69.00;;;;;;5016703;28;20227;-84
2024/01/09 03:02:06;;;;;;;19.17;11.52;;;-2.50;69.00;;;;;;5017006;28;20569;-84
2024/01/09 03:04:34;;;;;;;25.45;14.32;;;-2.50;69.10;;;;;;5016841;28;20221;-84
2024/01/09 03:07:01;;;;;;;29.05;14.30;;;-2.40;68.90;;;;;;5016510;28;20279;-84
2024/01/09 03:09:29;;;;;;;20.08;13.45;;;-2.50;69.20;;;;;;5016865;28;20196;-84
2024/01/09 03:11:56;;;;;;;23.35;14.48;;;-2.50;69.00;;;;;;4996996;28;20283;-84
2024/01/09 03:14:23;;;;;;;23.33;12.38;;;-2.50;68.90;;;;;;4997243;28;20291;-84
2024/01/09 03:16:50;;;;;;;26.55;14.60;;;-2.60;69.00;;;;;;4997034;28;20201;-84
2024/01/09 03:19:17;;;;;;;23.30;15.10;;;-2.50;69.50;;;;;;4996687;28;20672;-84
2024/01/09 03:21:45;;;;;;;25.25;13.55;;;-2.60;69.20;;;;;;4996619;28;20727;-84
2024/01/09 03:24:12;;;;;;;26.70;13.75;;;-2.50;69.40;;;;;;4996954;28;20279;-84
2024/01/09 03:26:39;;;;;;;23.33;14.80;;;-2.60;68.90;;;;;;4996845;28;20284;-84
2024/01/09 03:29:06;;;;;;;23.27;12.98;;;-2.60;69.10;;;;;;4996821;28;20276;-84
2024/01/09 03:31:33;;;;;;;20.88;11.35;;;-2.60;69.20;;;;;;4996789;28;20303;-84
2024/01/09 03:34:00;;;;;;;28.33;14.10;;;-2.60;69.50;;;;;;4996386;28;20232;-84
2024/01/09 03:36:28;;;;;;;25.92;13.70;;;-2.60;69.70;;;;;;4996748;28;20292;-84
2024/01/09 03:38:56;;;;;;;31.88;14.75;;;-2.70;69.50;;;;;;4996542;28;20280;-84
2024/01/09 03:41:23;;;;;;;25.90;14.68;;;-2.60;69.50;;;;;;4996539;28;20296;-84
2024/01/09 03:43:50;;;;;;;21.38;13.90;;;-2.60;69.10;;;;;;4996507;28;20193;-84
2024/01/09 03:46:16;;;;;;;25.70;15.25;;;-2.60;69.60;;;;;;4996151;28;20699;-84
2024/01/09 03:48:43;;;;;;;26.60;14.75;;;-2.70;70.10;;;;;;4996456;28;20193;-84
2024/01/09 03:51:10;;;;;;;23.25;13.90;;;-2.70;69.80;;;;;;4996244;28;20307;-84
2024/01/09 03:53:37;;;;;;;28.55;14.00;;;-2.70;69.90;;;;;;4996493;28;20352;-83
2024/01/09 03:56:06;;;;;;;25.08;14.13;;;-2.70;69.90;;;;;;4996339;28;20284;-84
2024/01/09 03:58:33;;;;;;;27.13;14.35;;;-2.70;69.80;;;;;;4996269;28;20189;-84
2024/01/09 04:00:59;;;;;;;24.95;14.65;;;-2.60;69.60;;;;;;4996108;28;20237;-84
2024/01/09 04:03:27;;;;;;;27.77;14.95;;;-2.60;69.80;;;;;;4995876;28;20280;-84
2024/01/09 04:05:54;;;;;;;24.58;15.05;;;-2.70;69.90;;;;;;4995974;28;20659;-84
2024/01/09 04:08:21;;;;;;;27.48;14.20;;;-2.70;70.20;;;;;;4996168;28;20619;-84
2024/01/09 04:10:48;;;;;;;24.38;13.95;;;-2.70;70.20;;;;;;5006343;28;20314;-84
2024/01/09 04:13:16;;;;;;;28.13;15.00;;;-2.70;70.30;;;;;;5015370;28;20235;-84
2024/01/09 04:15:43;;;;;;;27.52;14.73;;;-2.70;70.00;;;;;;5015808;28;20188;-84
2024/01/09 04:18:10;;;;;;;31.90;17.05;;;-2.70;70.30;;;;;;5015249;28;20291;-85
2024/01/09 04:20:37;;;;;;;29.90;16.77;;;-2.70;70.20;;;;;;5015236;28;20729;-84
2024/01/09 04:23:04;;;;;;;27.83;14.25;;;-2.70;70.20;;;;;;5014857;28;20196;-85
2024/01/09 04:25:31;;;;;;;25.58;13.80;;;-2.80;70.20;;;;;;5015502;28;20287;-85
2024/01/09 04:27:58;;;;;;;31.45;15.23;;;-2.70;70.50;;;;;;5015611;28;20287;-84
2024/01/09 04:30:26;;;;;;;26.85;14.07;;;-2.80;70.70;;;;;;5014821;28;20303;-84
2024/01/09 04:32:53;;;;;;;31.50;14.60;;;-2.70;70.80;;;;;;5015590;28;20219;-84
2024/01/09 04:35:20;;;;;;;25.20;13.52;;;-2.70;70.70;;;;;;5015396;28;20302;-85
2024/01/09 04:37:47;;;;;;;24.48;14.35;;;-2.60;70.50;;;;;;5015567;28;20279;-84
2024/01/09 04:40:14;;;;;;;29.23;16.00;;;-2.60;69.80;;;;;;5015261;28;20279;-84
2024/01/09 04:42:40;;;;;;;27.23;15.25;;;-2.70;69.90;;;;;;5015053;28;20702;-84
2024/01/09 04:45:08;;;;;;;27.95;14.20;;;-2.70;70.30;;;;;;5014975;28;20287;-84
2024/01/09 04:47:36;;;;;;;26.05;14.95;;;-2.70;70.30;;;;;;5015273;28;20188;-84
2024/01/09 04:50:03;;;;;;;26.05;15.75;;;-2.70;70.30;;;;;;5014867;28;20288;-85
2024/01/09 04:52:30;;;;;;;29.48;15.02;;;-2.70;70.30;;;;;;5014884;28;20283;-84
2024/01/09 04:54:57;;;;;;;25.38;13.75;;;-2.70;70.40;;;;;;5015174;28;20283;-85
2024/01/09 04:57:24;;;;;;;25.88;15.32;;;-2.70;70.90;;;;;;5006410;28;20229;-84
2024/01/09 04:59:50;;;;;;;32.13;15.10;;;-2.70;71.00;;;;;;5015042;28;20292;-85
2024/01/09 05:02:17;;;;;;;24.58;14.60;;;-2.70;70.80;;;;;;5015107;28;20291;-85
2024/01/09 05:04:46;;;;;;;27.45;15.52;;;-2.70;70.70;;;;;;5015044;28;20272;-85
2024/01/09 05:07:12;;;;;;;27.27;13.30;;;-2.70;70.50;;;;;;5014659;28;20741;-85
2024/01/09 05:09:39;;;;;;;29.17;14.85;;;-2.60;70.50;;;;;;5014753;28;20279;-86
2024/01/09 05:12:07;;;;;;;26.70;14.32;;;-2.60;70.30;;;;;;5014791;28;20295;-85
2024/01/09 05:14:34;;;;;;;27.50;13.88;;;-2.60;70.10;;;;;;5014738;28;20660;-85
2024/01/09 05:17:00;;;;;;;29.17;16.23;;;-2.60;70.00;;;;;;5014853;28;20196;-86
2024/01/09 05:19:27;;;;;;;27.10;14.88;;;-2.70;69.70;;;;;;5014883;28;20224;-85
2024/01/09 05:21:56;;;;;;;28.55;14.27;;;-2.70;69.80;;;;;;5026008;28;20188;-88
2024/01/09 05:24:22;;;;;;;25.30;15.18;;;-2.70;69.80;;;;;;5033480;28;20527;-85
2024/01/09 05:26:49;;;;;;;30.98;13.38;;;-2.70;69.70;;;;;;5034381;28;20613;-85
2024/01/09 05:29:16;;;;;;;28.27;15.45;;;-2.70;69.60;;;;;;5033328;28;20757;-85
2024/01/09 05:31:44;;;;;;;31.05;16.20;;;-2.70;69.90;;;;;;5033969;28;20301;-85
2024/01/09 05:34:11;;;;;;;24.17;14.32;;;-2.70;69.50;;;;;;5021393;28;20714;-85
2024/01/09 05:36:37;;;;;;;33.78;15.82;;;-2.70;69.90;;;;;;5014660;28;20601;-84
2024/01/09 05:39:06;;;;;;;26.05;15.27;;;-2.80;70.30;;;;;;5014395;28;20188;-86
2024/01/09 05:41:33;;;;;;;25.85;15.05;;;-2.70;70.50;;;;;;5014146;28;20284;-87
2024/01/09 05:44:00;;;;;;;26.42;15.07;;;-2.70;71.30;;;;;;5014089;28;20196;-85
2024/01/09 05:46:27;;;;;;;29.38;14.90;;;-2.70;69.90;;;;;;5014085;28;20286;-85
2024/01/09 05:48:54;;;;;;;26.95;15.80;;;-2.70;69.80;;;;;;5014138;28;20283;-85
2024/01/09 05:51:21;;;;;;;32.42;15.70;;;-2.70;69.80;;;;;;5014561;28;20208;-85
2024/01/09 05:53:48;;;;;;;30.10;16.58;;;-2.80;69.90;;;;;;5014377;28;20283;-85
2024/01/09 05:56:16;;;;;;;28.35;13.88;;;-2.80;70.20;;;;;;5013980;28;20209;-85
2024/01/09 05:58:43;;;;;;;26.00;13.25;;;-2.80;71.10;;;;;;5014238;28;20581;-85
2024/01/09 06:01:10;;;;;;;27.20;15.30;;;-2.80;70.10;;;;;;5014184;28;20332;-86
2024/01/09 06:03:36;;;;;;;30.70;16.20;;;-2.70;70.30;;;;;;5016914;28;20279;-85
2024/01/09 06:06:04;;;;;;;34.47;14.60;;;-2.70;69.80;;;;;;5033767;28;20278;-85
2024/01/09 06:08:30;;;;;;;27.15;15.43;;;-2.70;70.00;;;;;;5014622;28;20231;-85
2024/01/09 06:10:57;;;;;;;26.42;14.43;;;-2.70;69.90;;;;;;5025291;28;20305;-86
2024/01/09 06:13:25;;;;;;;21.77;13.50;;;-2.70;69.20;;;;;;5013683;28;20228;-85
2024/01/09 06:15:52;;;;;;;26.52;14.25;;;-2.70;69.40;;;;;;5013832;28;20275;-85
2024/01/09 06:18:19;;;;;;;27.50;15.82;;;-2.80;70.10;;;;;;5013881;28;20219;-86
2024/01/09 06:20:46;;;;;;;26.27;15.35;;;-2.80;70.20;;;;;;5013950;28;20235;-85
2024/01/09 06:23:13;;;;;;;33.65;15.15;;;-2.80;69.90;;;;;;5006187;28;20310;-86
2024/01/09 06:25:40;;;;;;;25.88;14.07;;;-2.80;69.50;;;;;;5013203;28;20227;-85
2024/01/09 06:28:07;;;;;;;26.25;14.65;;;-2.80;69.90;;;;;;5013212;28;20681;-86
2024/01/09 06:30:36;;;;;;;25.75;14.25;;;-2.90;70.10;;;;;;5013419;28;20202;-86
2024/01/09 06:33:03;;;;;;;26.90;15.68;;;-2.90;70.30;;;;;;5013648;28;20223;-86
2024/01/09 06:35:30;;;;;;;24.63;14.35;;;-2.90;70.60;;;;;;5030410;28;20193;-85
2024/01/09 06:37:57;;;;;;;26.58;13.98;;;-2.80;70.30;;;;;;5033497;28;20278;-86
2024/01/09 06:40:24;;;;;;;30.00;15.00;;;-2.80;70.40;;;;;;5025398;28;20227;-85
2024/01/09 06:42:51;;;;;;;26.35;14.98;;;-2.80;70.50;;;;;;5032515;28;20654;-86
2024/01/09 06:45:18;;;;;;;30.25;15.65;;;-2.80;70.60;;;;;;5032563;28;20286;-85
2024/01/09 06:47:46;;;;;;;33.95;16.08;;;-2.80;70.70;;;;;;5032694;28;20195;-86
2024/01/09 06:50:13;;;;;;;34.53;15.38;;;-2.80;70.40;;;;;;5033186;28;20245;-85
2024/01/09 06:52:40;;;;;;;26.02;13.88;;;-2.80;70.40;;;;;;5033039;28;20309;-86
2024/01/09 06:55:08;;;;;;;27.90;14.93;;;-2.80;70.40;;;;;;5025095;28;20333;-86
2024/01/09 06:57:34;;;;;;;27.25;14.48;;;-2.60;69.40;;;;;;5013565;28;20196;-86
2024/01/09 07:00:01;;;;;;;28.73;15.25;;;-2.70;69.00;;;;;;5033180;28;20215;-85
2024/01/09 07:02:28;;;;;;;26.00;13.80;;;-2.70;69.50;;;;;;5032990;28;20637;-85
2024/01/09 07:04:56;;;;;;;32.47;14.68;;;-2.80;69.90;;;;;;5032959;28;20726;-85
2024/01/09 07:07:23;;;;;;;27.58;15.30;;;-2.80;70.30;;;;;;5033274;28;20238;-85
2024/01/09 07:09:50;;;;;;;25.40;15.30;;;-2.80;70.50;;;;;;5032925;28;20230;-87
2024/01/09 07:12:17;;;;;;;27.52;15.27;;;-2.70;70.20;;;;;;5032058;28;20291;-86
2024/01/09 07:14:44;;;;;;;31.33;17.30;;;-2.70;69.60;;;;;;5009831;28;20227;-86
2024/01/09 07:17:11;;;;;;;26.17;14.68;;;-2.70;69.50;;;;;;5013390;28;20275;-86
2024/01/09 07:19:38;;;;;;;28.42;15.20;;;-2.70;69.60;;;;;;5012665;28;20287;-86
2024/01/09 07:22:06;;;;;;;27.05;15.52;;;-2.70;69.60;;;;;;5015974;28;20287;-86
2024/01/09 07:24:33;;;;;;;26.98;14.98;;;-2.70;69.20;;;;;;5016443;28;20283;-85
2024/01/09 07:27:00;;;;;;;29.33;15.10;;;-2.70;69.50;;;;;;5016397;28;20287;-86
2024/01/09 07:29:27;;;;;;;28.30;13.55;;;-2.70;69.60;;;;;;5036583;28;20287;-86
2024/01/09 07:31:55;;;;;;;29.27;15.27;;;-2.70;69.50;;;;;;5036211;28;20302;-86
2024/01/09 07:34:22;;;;;;;24.70;14.90;;;-2.70;70.00;;;;;;5036221;28;20192;-86
2024/01/09 07:36:49;;;;;;;26.10;15.20;;;-2.70;70.30;;;;;;5036259;28;20282;-86
2024/01/09 07:39:17;;;;;;;29.42;17.00;;;-2.70;70.40;;;;;;5035854;28;20291;-86
2024/01/09 07:41:44;;;;;;;25.25;13.57;;;-2.70;70.50;;;;;;5036492;28;20282;-86
2024/01/09 07:44:11;;;;;;;25.88;14.85;;;-2.60;70.30;;;;;;5036237;28;20199;-86
2024/01/09 07:46:38;;;;;;;26.52;15.80;;;-2.60;70.10;;;;;;5036064;28;20195;-85
2024/01/09 07:49:05;;;;;;;29.38;15.50;;;-2.60;70.30;;;;;;5036040;28;20278;-86
2024/01/09 07:51:32;;;;;;;29.13;14.85;;;-2.60;70.30;;;;;;5035686;28;20243;-86
2024/01/09 07:53:59;;;;;;;23.52;13.23;;;-2.50;70.30;;;;;;5035694;28;20285;-86
2024/01/09 07:56:27;;;;;;;26.42;14.20;;;-2.50;69.90;;;;;;5032565;28;20286;-86
2024/01/09 07:58:54;;;;;;;32.25;18.20;;;-2.40;69.40;;;;;;5035569;28;20717;-85
2024/01/09 08:01:23;;;;;;;28.25;15.18;;;-2.40;69.10;;;;;;5035818;28;20713;-86
2024/01/09 08:03:50;;;;;;;28.10;15.32;;;-2.30;68.60;;;;;;5035675;28;20245;-87
2024/01/09 08:06:17;;;;;;;24.15;13.88;;;-2.40;68.50;;;;;;5035790;28;21005;-86
2024/01/09 08:08:44;;;;;;;23.20;13.90;;;-2.40;68.80;;;;;;5035294;28;20717;-86
2024/01/09 08:11:11;;;;;;;24.85;14.63;;;-2.30;68.40;;;;;;5035491;28;20395;-86
2024/01/09 08:13:41;;;;;;;27.85;14.70;;;-2.30;68.20;;;;;;5035522;28;20628;-86
2024/01/09 08:16:09;;;;;;;26.60;14.23;;;-2.30;68.30;;;;;;5035431;28;20273;-86
2024/01/09 08:18:36;;;;;;;24.23;14.65;;;-2.30;68.50;;;;;;5035037;28;20199;-86
2024/01/09 08:21:04;;;;;;;26.70;14.95;;;-2.30;67.70;;;;;;5035420;28;20253;-86
2024/01/09 08:23:31;;;;;;;28.60;16.02;;;-2.30;68.30;;;;;;5035492;28;20211;-86
2024/01/09 08:25:57;;;;;;;30.67;15.65;;;-2.40;68.60;;;;;;5035074;28;20282;-85
2024/01/09 08:28:24;;;;;;;33.45;15.82;;;-2.30;68.60;;;;;;5035259;28;20286;-86
2024/01/09 08:30:53;;;;;;;23.10;13.10;;;-2.30;68.40;;;;;;5034043;28;20703;-86
2024/01/09 08:33:20;;;;;;;30.10;14.65;;;-2.30;68.00;;;;;;5035171;28;20277;-86
2024/01/09 08:35:50;;;;;;;24.42;13.27;;;-2.30;67.70;;;;;;5034840;28;20730;-85
2024/01/09 08:38:19;;;;;;;32.35;14.30;;;-2.20;67.50;;;;;;5035050;28;20282;-85
2024/01/09 08:40:51;;;;;;;26.30;13.25;;;-2.20;67.50;;;;;;5035017;28;20642;-86
2024/01/09 08:43:18;;;;;;;28.40;15.52;;;-2.20;67.10;;;;;;5035127;28;20210;-86
2024/01/09 08:45:46;;;;;;;26.98;13.90;;;-2.20;67.30;;;;;;5034678;28;20634;-86
2024/01/09 08:48:14;;;;;;;23.73;13.63;;;-2.20;66.60;;;;;;5034522;28;20283;-86
2024/01/09 08:50:41;;;;;;;25.05;13.98;;;-2.20;66.90;;;;;;5034874;28;20281;-86
2024/01/09 08:53:08;;;;;;;33.40;15.85;;;-2.20;67.10;;;;;;5034422;28;20298;-86
2024/01/09 08:55:35;;;;;;;24.35;13.25;;;-2.20;67.10;;;;;;5034799;28;20269;-86
2024/01/09 08:58:01;;;;;;;27.70;14.43;;;-2.20;67.20;;;;;;5034729;28;20195;-86
2024/01/09 09:00:29;;;;;;;29.63;17.52;;;-2.10;67.40;;;;;;5034651;28;20287;-86
2024/01/09 09:02:56;;;;;;;24.23;15.07;;;-2.10;67.50;;;;;;5034774;28;20278;-86
2024/01/09 09:05:24;;;;;;;28.55;15.65;;;-2.10;67.30;;;;;;5034252;28;20246;-86
2024/01/09 09:07:54;;;;;;;26.98;14.38;;;-2.10;66.90;;;;;;5034176;28;20210;-86
2024/01/09 09:10:22;;;;;;;25.33;14.13;;;-2.00;66.40;;;;;;5034351;28;20255;-85
2024/01/09 09:12:48;;;;;;;25.33;13.35;;;-2.00;66.40;;;;;;5034175;28;20219;-86
2024/01/09 09:15:16;;;;;;;25.05;13.82;;;-1.90;66.40;;;;;;5034316;28;20286;-86
2024/01/09 09:17:42;;;;;;;23.98;12.65;;;-2.00;66.00;;;;;;5033984;28;20733;-86
2024/01/09 09:20:11;;;;;;;24.88;13.20;;;-2.00;66.60;;;;;;5034068;28;20312;-86
2024/01/09 09:22:40;;;;;;;24.13;13.00;;;-1.90;66.30;;;;;;5034232;28;20203;-85
2024/01/09 09:25:08;;;;;;;26.88;13.82;;;-1.80;65.40;;;;;;5033306;28;20210;-86
2024/01/09 09:27:35;;;;;;;23.92;13.00;;;-1.80;65.00;;;;;;5034162;28;20198;-86
2024/01/09 09:30:01;;;;;;;22.23;13.57;;;-1.70;64.50;;;;;;5034360;28;20192;-86
2024/01/09 09:32:30;;;;;;;27.38;14.88;;;-1.80;64.40;;;;;;5033983;28;20251;-86
2024/01/09 09:34:57;;;;;;;22.20;13.07;;;-1.80;65.20;;;;;;5034435;28;20227;-86
2024/01/09 09:37:24;;;;;;;22.35;12.60;;;-1.90;65.40;;;;;;5033806;28;20211;-86
2024/01/09 09:39:52;;;;;;;28.30;14.30;;;-1.80;65.00;;;;;;5034140;28;20192;-87
2024/01/09 09:42:21;;;;;;;28.95;14.65;;;-1.80;64.70;;;;;;5033450;28;20199;-86
2024/01/09 09:44:51;;;;;;;29.23;14.00;;;-1.90;65.20;;;;;;5033956;28;20282;-86
2024/01/09 09:47:20;;;;;;;32.25;13.23;;;-1.90;65.70;;;;;;5034087;28;20206;-86
2024/01/09 09:49:48;;;;;;;24.73;14.85;;;-1.90;66.30;;;;;;5033735;28;20190;-86
2024/01/09 09:52:16;;;;;;;24.90;12.77;;;-1.80;66.40;;;;;;5033785;28;20285;-85
2024/01/09 09:54:43;;;;;;;27.55;15.40;;;-1.70;65.80;;;;;;5033498;28;20274;-86
2024/01/09 09:57:11;;;;;;;26.33;15.18;;;-1.70;65.90;;;;;;5033477;28;20641;-86
2024/01/09 09:59:38;;;;;;;27.10;14.38;;;-1.70;65.70;;;;;;5033312;28;20286;-86
2024/01/09 10:02:07;;;;;;;25.27;14.77;;;-1.70;65.50;;;;;;5033389;28;20238;-83
2024/01/09 10:04:44;;;;;;;23.75;13.60;;;-1.60;65.50;;;;;;5033610;28;20282;-83
2024/01/09 10:07:16;;;;;;;25.40;13.70;;;-1.50;65.10;;;;;;5033358;28;20211;-83
2024/01/09 10:09:49;;;;;;;23.05;13.70;;;-1.50;64.70;;;;;;5033535;28;20201;-83
2024/01/09 10:12:19;;;;;;;29.58;15.60;;;-1.50;64.50;;;;;;5033493;28;20235;-85
2024/01/09 10:15:07;;;;;;;29.92;15.35;;;-1.50;64.20;;;;;;5033167;28;20187;-84
2024/01/09 10:17:34;;;;;;;29.10;16.42;;;-1.40;64.40;;;;;;5026950;28;20265;-84
2024/01/09 10:20:01;;;;;;;39.20;20.70;;;-1.40;64.10;;;;;;5033433;28;20619;-83
2024/01/09 10:22:31;;;;;;;32.80;17.40;;;-1.30;64.20;;;;;;5032966;28;20197;-83
2024/01/09 10:24:58;;;;;;;34.30;20.00;;;-1.30;64.10;;;;;;5033320;28;20192;-83
2024/01/09 10:27:27;;;;;;;30.90;16.88;;;-1.30;64.30;;;;;;5033453;28;20242;-85
2024/01/09 10:29:54;;;;;;;29.67;16.88;;;-1.20;64.20;;;;;;5033290;28;20279;-86
2024/01/09 10:32:21;;;;;;;24.70;14.65;;;-1.20;63.50;;;;;;5032967;28;20302;-86
2024/01/09 10:34:48;;;;;;;24.77;14.52;;;-1.20;63.20;;;;;;5033248;28;20275;-86
2024/01/09 10:37:16;;;;;;;23.73;15.80;;;-1.20;63.10;;;;;;5033440;28;20195;-86
2024/01/09 10:39:47;;;;;;;30.92;18.00;;;-1.20;63.10;;;;;;5033182;28;20195;-86
2024/01/09 10:42:14;;;;;;;33.35;17.80;;;-1.20;63.00;;;;;;5033088;28;20634;-86
2024/01/09 10:44:43;;;;;;;26.85;16.13;;;-1.10;63.20;;;;;;5033220;28;20282;-87
2024/01/09 10:47:12;;;;;;;28.27;16.23;;;-1.10;62.50;;;;;;5032764;28;20249;-85
2024/01/09 10:49:42;;;;;;;29.27;16.35;;;-1.10;62.30;;;;;;5032648;28;20192;-86
2024/01/09 10:52:13;;;;;;;43.00;18.35;;;-1.10;62.40;;;;;;5032862;28;20195;-87
2024/01/09 10:54:41;;;;;;;28.42;16.40;;;-1.00;62.60;;;;;;5034086;28;20270;-86
2024/01/09 10:57:12;;;;;;;29.05;15.35;;;-1.00;62.20;;;;;;5036910;28;20214;-87
2024/01/09 10:59:41;;;;;;;39.03;18.10;;;-1.10;61.90;;;;;;5036886;28;20180;-86
2024/01/09 11:02:15;;;;;;;27.10;14.23;;;-1.00;62.10;;;;;;5037020;28;20210;-86
2024/01/09 11:04:43;;;;;;;30.83;16.10;;;-1.10;60.90;;;;;;5037077;28;20257;-86
2024/01/09 11:07:14;;;;;;;29.67;14.70;;;-1.10;61.30;;;;;;5036591;28;20231;-85
2024/01/09 11:09:44;;;;;;;33.92;15.13;;;-1.10;61.40;;;;;;5035838;28;20222;-86
2024/01/09 11:12:14;;;;;;;28.33;15.23;;;-1.10;61.80;;;;;;5036103;28;20242;-86
2024/01/09 11:14:43;;;;;;;28.40;13.60;;;-1.00;61.80;;;;;;5036574;28;20525;-86
2024/01/09 11:17:13;;;;;;;26.60;14.88;;;-1.00;61.70;;;;;;5036590;28;20195;-86
2024/01/09 11:19:40;;;;;;;27.25;15.43;;;-1.00;61.80;;;;;;5036793;28;20581;-86
2024/01/09 11:22:14;;;;;;;29.20;15.52;;;-1.00;61.60;;;;;;5036605;28;20192;-85
2024/01/09 11:24:41;;;;;;;31.33;16.33;;;-1.00;61.50;;;;;;5036123;28;20294;-86
2024/01/09 11:27:12;;;;;;;26.58;14.55;;;-1.00;61.40;;;;;;5036618;28;20257;-88
2024/01/09 11:30:03;;;;;;;29.05;15.10;;;-1.00;60.70;;;;;;5036473;28;20198;-92
2024/01/09 11:32:33;;;;;;;34.13;16.63;;;-1.00;60.40;;;;;;5036170;28;20210;-87
2024/01/09 11:35:10;;;;;;;22.80;14.55;;;-1.00;60.60;;;;;;5036176;28;20276;-88
2024/01/09 11:37:39;;;;;;;24.73;14.57;;;-1.00;60.20;;;;;;5036480;28;20195;-88
2024/01/09 11:40:09;;;;;;;24.98;14.63;;;-1.00;60.30;;;;;;5036053;28;20187;-87
2024/01/09 11:42:37;;;;;;;25.50;14.80;;;-1.00;60.60;;;;;;5036297;28;20215;-87
2024/01/09 11:45:07;;;;;;;28.17;16.33;;;-1.00;60.30;;;;;;5036165;28;20278;-87
2024/01/09 11:47:36;;;;;;;22.55;15.10;;;-1.00;60.00;;;;;;5036239;28;20204;-87
2024/01/09 11:50:07;;;;;;;27.83;15.30;;;-1.00;59.90;;;;;;5035800;28;20198;-89
2024/01/09 11:52:34;;;;;;;26.23;16.83;;;-1.00;60.30;;;;;;5035918;28;20559;-87
2024/01/09 11:55:01;;;;;;;27.88;14.88;;;-0.90;60.40;;;;;;5036033;28;20199;-88
2024/01/09 11:57:29;;;;;;;26.25;13.75;;;-1.00;60.20;;;;;;5035880;28;20282;-87
2024/01/09 11:59:56;;;;;;;33.30;15.35;;;-0.90;60.30;;;;;;5036096;28;20613;-86
2024/01/09 12:02:23;;;;;;;29.02;15.65;;;-0.90;60.20;;;;;;5027682;28;20200;-86
2024/01/09 12:04:52;;;;;;;31.50;15.30;;;-0.90;60.10;;;;;;5035644;28;20275;-87
2024/01/09 12:07:19;;;;;;;32.72;16.15;;;-0.90;60.40;;;;;;5035592;28;20245;-86
2024/01/09 12:09:48;;;;;;;28.98;14.45;;;-0.90;60.30;;;;;;5035224;28;20245;-86
2024/01/09 12:12:21;;;;;;;31.67;16.75;;;-0.90;60.40;;;;;;5035384;28;20186;-87
2024/01/09 12:14:52;;;;;;;27.33;15.95;;;-0.90;60.20;;;;;;5035250;28;20180;-87
2024/01/09 12:17:19;;;;;;;28.17;14.18;;;-0.90;60.10;;;;;;5035701;28;20214;-86
2024/01/09 12:19:46;;;;;;;28.65;15.10;;;-0.90;59.80;;;;;;5035230;28;20722;-87
2024/01/09 12:22:15;;;;;;;25.13;15.98;;;-0.90;59.70;;;;;;5035401;28;20601;-86
2024/01/09 12:24:42;;;;;;;31.75;17.05;;;-0.90;59.80;;;;;;5035745;28;20610;-87
2024/01/09 12:27:10;;;;;;;24.20;14.80;;;-1.00;59.80;;;;;;5035344;28;20588;-86
2024/01/09 12:29:37;;;;;;;23.35;14.50;;;-1.00;60.10;;;;;;5035059;28;20283;-86
2024/01/09 12:32:04;;;;;;;30.08;14.50;;;-1.00;60.20;;;;;;5035295;28;20286;-86